createdAt,value
2022-09-17T00:00:38.997Z,11.68
2022-09-17T00:03:05.489Z,11.68
2022-09-17T00:05:31.960Z,11.66
2022-09-17T00:07:58.323Z,11.72
2022-09-17T00:10:24.787Z,11.74
2022-09-17T00:12:51.434Z,11.73
2022-09-17T00:15:18.100Z,11.78
2022-09-17T00:17:44.527Z,11.78
2022-09-17T00:20:10.967Z,11.77
2022-09-17T00:22:38.268Z,11.79
2022-09-17T00:25:05.384Z,11.84
2022-09-17T00:27:31.775Z,11.83
2022-09-17T00:29:58.403Z,11.78
2022-09-17T00:32:24.800Z,11.77
2022-09-17T00:34:52.197Z,11.84
2022-09-17T00:37:19.482Z,11.83
2022-09-17T00:39:45.847Z,11.83
2022-09-17T00:42:12.874Z,11.84
2022-09-17T00:44:42.043Z,11.81
2022-09-17T00:47:15.840Z,11.83
2022-09-17T00:49:42.235Z,11.86
2022-09-17T00:52:10.815Z,11.83
2022-09-17T00:54:38.556Z,11.84
2022-09-17T00:57:05.041Z,11.90
2022-09-17T00:59:31.423Z,11.83
2022-09-17T01:01:58.500Z,11.84
2022-09-17T01:04:26.001Z,11.86
2022-09-17T01:07:54.169Z,11.85
2022-09-17T01:10:31.624Z,11.85
2022-09-17T01:13:30.148Z,11.84
2022-09-17T01:16:09.974Z,11.91
2022-09-17T01:19:04.728Z,11.94
2022-09-17T01:21:43.176Z,11.86
2022-09-17T01:24:22.169Z,11.92
2022-09-17T01:26:48.887Z,11.88
2022-09-17T01:29:44.331Z,11.85
2022-09-17T01:32:31.061Z,11.86
2022-09-17T01:35:00.520Z,11.78
2022-09-17T01:37:50.132Z,11.81
2022-09-17T01:40:48.246Z,11.85
2022-09-17T01:43:33.752Z,11.84
2022-09-17T01:46:04.703Z,11.79
2022-09-17T01:48:33.836Z,11.80
2022-09-17T01:51:07.831Z,11.76
2022-09-17T01:53:46.108Z,11.73
2022-09-17T01:56:14.846Z,11.76
2022-09-17T01:58:44.501Z,11.73
2022-09-17T02:01:10.937Z,11.69
2022-09-17T02:03:41.374Z,11.68
2022-09-17T02:06:12.204Z,11.76
2022-09-17T02:08:43.115Z,11.68
2022-09-17T02:11:15.116Z,11.74
2022-09-17T02:13:45.173Z,11.76
2022-09-17T02:16:16.880Z,11.74
2022-09-17T02:18:50.673Z,11.80
2022-09-17T02:21:26.399Z,11.72
2022-09-17T02:24:00.352Z,11.73
2022-09-17T02:26:26.782Z,11.72
2022-09-17T02:29:02.648Z,11.62
2022-09-17T02:31:29.250Z,11.68
2022-09-17T02:33:57.424Z,11.66
2022-09-17T02:36:25.011Z,11.67
2022-09-17T02:38:55.428Z,11.65
2022-09-17T02:41:23.516Z,11.68
2022-09-17T02:44:04.641Z,11.65
2022-09-17T02:46:36.499Z,11.65
2022-09-17T02:49:20.047Z,11.66
2022-09-17T02:52:11.351Z,11.61
2022-09-17T02:55:16.674Z,11.63
2022-09-17T02:58:03.307Z,11.56
2022-09-17T03:00:29.776Z,11.46
2022-09-17T03:03:02.029Z,11.49
2022-09-17T03:05:28.740Z,11.48
2022-09-17T03:07:56.796Z,11.42
2022-09-17T03:10:23.439Z,11.42
2022-09-17T03:12:49.863Z,11.40
2022-09-17T03:15:16.355Z,11.39
2022-09-17T03:17:42.742Z,11.42
2022-09-17T03:20:09.656Z,11.37
2022-09-17T03:22:36.098Z,11.44
2022-09-17T03:25:02.483Z,11.44
2022-09-17T03:27:28.886Z,11.47
2022-09-17T03:29:55.264Z,11.48
2022-09-17T03:32:21.646Z,11.44
2022-09-17T03:34:48.077Z,11.49
2022-09-17T03:37:14.453Z,11.46
2022-09-17T03:39:40.844Z,11.45
2022-09-17T03:42:07.252Z,11.45
2022-09-17T03:44:33.651Z,11.37
2022-09-17T03:47:00.023Z,11.37
2022-09-17T03:49:26.465Z,11.36
2022-09-17T03:51:52.859Z,11.39
2022-09-17T03:54:19.283Z,11.31
2022-09-17T03:56:45.676Z,11.34
2022-09-17T03:59:12.060Z,11.32
2022-09-17T04:01:38.805Z,11.38
2022-09-17T04:04:05.296Z,11.34
2022-09-17T04:06:31.710Z,11.35
2022-09-17T04:08:58.078Z,11.39
2022-09-17T04:11:24.481Z,11.37
2022-09-17T04:13:50.879Z,11.38
2022-09-17T04:16:17.402Z,11.32
2022-09-17T04:18:43.817Z,11.34
2022-09-17T04:21:10.246Z,11.36
2022-09-17T04:23:36.616Z,11.34
2022-09-17T04:26:05.889Z,11.36
2022-09-17T04:28:32.473Z,11.33
2022-09-17T04:30:58.953Z,11.35
2022-09-17T04:33:25.493Z,11.32
2022-09-17T04:35:52.342Z,11.34
2022-09-17T04:38:20.545Z,11.32
2022-09-17T04:40:47.021Z,11.32
2022-09-17T04:43:13.516Z,11.28
2022-09-17T04:45:39.897Z,11.25
2022-09-17T04:48:06.350Z,11.19
2022-09-17T04:50:32.777Z,11.21
2022-09-17T04:52:59.167Z,11.13
2022-09-17T04:55:26.416Z,11.09
2022-09-17T04:57:53.198Z,11.09
2022-09-17T05:00:20.326Z,11.13
2022-09-17T05:02:48.178Z,11.07
2022-09-17T05:05:14.844Z,11.01
2022-09-17T05:07:41.569Z,11.04
2022-09-17T05:10:08.978Z,11.03
2022-09-17T05:12:35.507Z,11.01
2022-09-17T05:15:02.201Z,11.04
2022-09-17T05:17:28.579Z,11.05
2022-09-17T05:19:54.965Z,11.01
2022-09-17T05:22:21.732Z,11.09
2022-09-17T05:24:48.195Z,11.11
2022-09-17T05:27:14.551Z,11.09
2022-09-17T05:29:40.938Z,11.13
2022-09-17T05:32:07.299Z,11.13
2022-09-17T05:34:33.994Z,11.13
2022-09-17T05:37:00.389Z,11.12
2022-09-17T05:39:26.771Z,11.14
2022-09-17T05:41:53.464Z,11.13
2022-09-17T05:44:19.995Z,11.11
2022-09-17T05:46:46.872Z,11.06
2022-09-17T05:49:15.063Z,11.04
2022-09-17T05:51:42.222Z,11.04
2022-09-17T05:54:09.111Z,10.99
2022-09-17T05:56:35.515Z,11.02
2022-09-17T05:59:01.946Z,10.96
2022-09-17T06:01:28.497Z,10.98
2022-09-17T06:03:55.415Z,11.05
2022-09-17T06:06:21.895Z,11.08
2022-09-17T06:08:48.276Z,11.11
2022-09-17T06:11:14.688Z,11.01
2022-09-17T06:13:43.453Z,11.03
2022-09-17T06:16:09.896Z,11.03
2022-09-17T06:18:36.443Z,11.12
2022-09-17T06:21:03.796Z,10.99
2022-09-17T06:23:36.194Z,11.13
2022-09-17T06:26:03.117Z,11.18
2022-09-17T06:28:29.658Z,11.23
2022-09-17T06:31:00.296Z,11.25
2022-09-17T06:33:26.839Z,11.23
2022-09-17T06:36:00.932Z,11.28
2022-09-17T06:38:31.698Z,11.32
2022-09-17T06:40:58.188Z,11.34
2022-09-17T06:43:24.724Z,11.41
2022-09-17T06:46:01.445Z,11.43
2022-09-17T06:48:28.964Z,11.43
2022-09-17T06:50:55.722Z,11.43
2022-09-17T06:53:22.826Z,11.44
2022-09-17T06:55:49.425Z,11.50
2022-09-17T06:58:15.880Z,11.55
2022-09-17T07:00:42.428Z,11.56
2022-09-17T07:03:08.973Z,11.65
2022-09-17T07:05:35.373Z,11.74
2022-09-17T07:08:05.248Z,11.79
2022-09-17T07:10:31.773Z,11.80
2022-09-17T07:12:59.125Z,11.71
2022-09-17T07:15:25.535Z,11.80
2022-09-17T07:17:51.908Z,11.87
2022-09-17T07:20:18.433Z,11.86
2022-09-17T07:22:44.944Z,11.80
2022-09-17T07:25:11.562Z,11.69
2022-09-17T07:27:37.979Z,11.65
2022-09-17T07:30:05.153Z,11.67
2022-09-17T07:32:31.647Z,11.66
2022-09-17T07:34:58.047Z,11.64
2022-09-17T07:37:25.652Z,11.60
2022-09-17T07:39:52.139Z,11.53
2022-09-17T07:42:18.560Z,11.54
2022-09-17T07:44:46.623Z,11.59
2022-09-17T07:47:12.974Z,11.66
2022-09-17T07:49:39.531Z,11.70
2022-09-17T07:52:06.426Z,11.59
2022-09-17T07:54:37.339Z,11.70
2022-09-17T07:57:04.091Z,11.71
2022-09-17T07:59:30.486Z,11.81
2022-09-17T08:01:56.949Z,11.96
2022-09-17T08:04:23.430Z,12.06
2022-09-17T08:06:49.827Z,12.14
2022-09-17T08:09:16.750Z,12.20
2022-09-17T08:11:58.572Z,12.25
2022-09-17T08:14:29.420Z,12.30
2022-09-17T08:16:56.451Z,12.38
2022-09-17T08:19:22.813Z,12.38
2022-09-17T08:21:49.195Z,12.47
2022-09-17T08:24:15.592Z,12.50
2022-09-17T08:26:42.042Z,12.56
2022-09-17T08:29:08.513Z,12.54
2022-09-17T08:31:35.057Z,12.56
2022-09-17T08:34:01.505Z,12.57
2022-09-17T08:36:28.581Z,12.58
2022-09-17T08:38:55.298Z,12.64
2022-09-17T08:41:24.883Z,12.68
2022-09-17T08:44:12.627Z,12.70
2022-09-17T08:46:49.275Z,12.72
2022-09-17T08:49:30.899Z,12.85
2022-09-17T08:52:19.174Z,12.82
2022-09-17T08:54:55.059Z,12.88
2022-09-17T08:57:47.955Z,12.95
2022-09-17T09:00:17.565Z,13.06
2022-09-17T09:03:03.215Z,13.14
2022-09-17T09:05:47.527Z,13.17
2022-09-17T09:08:15.636Z,13.27
2022-09-17T09:10:46.651Z,13.33
2022-09-17T09:13:14.680Z,13.35
2022-09-17T09:15:46.193Z,13.36
2022-09-17T09:18:22.494Z,13.46
2022-09-17T09:20:55.425Z,13.56
2022-09-17T09:23:29.526Z,13.84
2022-09-17T09:26:04.322Z,13.91
2022-09-17T09:28:39.564Z,13.74
2022-09-17T09:31:18.694Z,13.55
2022-09-17T09:33:47.840Z,13.64
2022-09-17T09:36:15.600Z,13.83
2022-09-17T09:38:56.555Z,13.88
2022-09-17T09:41:26.054Z,13.86
2022-09-17T09:44:09.154Z,13.79
2022-09-17T09:46:53.871Z,13.93
2022-09-17T09:49:38.661Z,14.10
2022-09-17T09:52:20.342Z,13.96
2022-09-17T09:54:55.845Z,13.96
2022-09-17T09:57:35.186Z,14.05
2022-09-17T10:00:26.835Z,14.07
2022-09-17T10:02:55.600Z,13.96
2022-09-17T10:05:22.022Z,14.00
2022-09-17T10:07:48.383Z,13.90
2022-09-17T10:10:14.779Z,13.82
2022-09-17T10:12:41.159Z,14.05
2022-09-17T10:15:28.222Z,14.33
2022-09-17T10:18:26.013Z,14.36
2022-09-17T10:20:59.776Z,14.37
2022-09-17T10:23:28.071Z,14.44
2022-09-17T10:25:55.731Z,14.36
2022-09-17T10:28:34.062Z,14.12
2022-09-17T10:31:08.881Z,14.20
2022-09-17T10:33:36.899Z,14.20
2022-09-17T10:36:06.291Z,14.25
2022-09-17T10:38:43.459Z,14.42
2022-09-17T10:41:13.351Z,14.58
2022-09-17T10:43:39.999Z,14.58
2022-09-17T10:46:06.403Z,14.58
2022-09-17T10:48:34.277Z,14.66
2022-09-17T10:51:03.032Z,14.61
2022-09-17T10:53:29.455Z,14.53
2022-09-17T10:56:02.748Z,14.26
2022-09-17T10:59:01.526Z,14.32
2022-09-17T11:01:32.777Z,14.61
2022-09-17T11:04:43.763Z,15.14
2022-09-17T11:07:16.723Z,14.98
2022-09-17T11:10:04.514Z,15.32
2022-09-17T11:12:30.907Z,15.53
2022-09-17T11:15:00.285Z,15.64
2022-09-17T11:17:46.786Z,15.40
2022-09-17T11:20:45.973Z,16.15
2022-09-17T11:23:31.745Z,16.63
2022-09-17T11:26:08.333Z,16.77
2022-09-17T11:29:00.203Z,16.90
2022-09-17T11:31:55.115Z,16.40
2022-09-17T11:34:41.838Z,16.23
2022-09-17T11:37:23.612Z,16.23
2022-09-17T11:39:55.036Z,16.04
2022-09-17T11:42:25.801Z,15.14
2022-09-17T11:44:58.320Z,14.25
2022-09-17T11:47:34.101Z,13.97
2022-09-17T11:50:09.318Z,13.50
2022-09-17T11:52:37.965Z,13.47
2022-09-17T11:55:22.015Z,13.56
2022-09-17T11:57:49.496Z,13.48
2022-09-17T12:00:17.872Z,13.23
2022-09-17T12:03:18.256Z,12.87
2022-09-17T12:05:55.980Z,12.52
2022-09-17T12:08:43.460Z,12.17
2022-09-17T12:11:21.282Z,11.85
2022-09-17T12:13:52.852Z,11.79
2022-09-17T12:16:36.633Z,11.63
2022-09-17T12:19:12.047Z,11.58
2022-09-17T12:21:49.560Z,11.78
2022-09-17T12:24:25.664Z,11.66
2022-09-17T12:27:07.502Z,11.87
2022-09-17T12:29:45.831Z,11.82
2022-09-17T12:32:29.974Z,11.83
2022-09-17T12:35:06.948Z,11.82
2022-09-17T12:37:49.226Z,11.83
2022-09-17T12:40:21.155Z,11.73
2022-09-17T12:43:02.914Z,11.85
2022-09-17T12:46:14.466Z,11.80
2022-09-17T12:49:12.878Z,11.61
2022-09-17T12:52:02.075Z,11.54
2022-09-17T12:54:57.638Z,11.50
2022-09-17T12:57:30.144Z,11.47
2022-09-17T13:00:10.201Z,11.48
2022-09-17T13:02:41.285Z,11.39
2022-09-17T13:05:42.920Z,11.41
2022-09-17T13:08:40.087Z,11.41
2022-09-17T13:11:11.703Z,11.44
2022-09-17T13:13:50.411Z,11.39
2022-09-17T13:16:29.255Z,11.23
2022-09-17T13:19:20.706Z,11.39
2022-09-17T13:21:55.676Z,11.32
2022-09-17T13:24:25.100Z,11.23
2022-09-17T13:26:54.608Z,11.17
2022-09-17T13:29:48.934Z,11.13
2022-09-17T13:32:36.799Z,11.04
2022-09-17T13:35:12.189Z,11.00
2022-09-17T13:37:58.989Z,10.93
2022-09-17T13:40:29.431Z,10.86
2022-09-17T13:42:59.386Z,10.71
2022-09-17T13:45:25.959Z,10.58
2022-09-17T13:48:03.071Z,10.47
2022-09-17T13:50:35.618Z,10.53
2022-09-17T13:53:17.093Z,10.51
2022-09-17T13:55:43.512Z,10.51
2022-09-17T13:58:22.054Z,10.38
2022-09-17T14:01:11.839Z,10.31
2022-09-17T14:03:41.899Z,10.33
2022-09-17T14:06:08.581Z,10.33
2022-09-17T14:08:43.713Z,10.42
2022-09-17T14:11:22.317Z,10.51
2022-09-17T14:14:11.731Z,10.52
2022-09-17T14:16:45.960Z,10.43
2022-09-17T14:19:15.429Z,10.46
2022-09-17T14:22:03.366Z,10.46
2022-09-17T14:24:46.806Z,10.36
2022-09-17T14:27:22.422Z,10.36
2022-09-17T14:30:04.266Z,10.34
2022-09-17T14:32:42.830Z,10.38
2022-09-17T14:35:20.307Z,10.33
2022-09-17T14:37:50.320Z,10.32
2022-09-17T14:40:18.614Z,10.38
2022-09-17T14:42:45.063Z,10.29
2022-09-17T14:45:16.375Z,10.27
2022-09-17T14:47:42.762Z,10.38
2022-09-17T14:50:22.256Z,10.34
2022-09-17T14:52:49.975Z,10.35
2022-09-17T14:55:24.087Z,10.31
2022-09-17T14:57:55.038Z,10.31
2022-09-17T15:00:26.049Z,10.44
2022-09-17T15:02:55.571Z,10.36
2022-09-17T15:05:28.054Z,10.39
2022-09-17T15:08:09.817Z,10.39
2022-09-17T15:10:44.787Z,10.31
2022-09-17T15:13:16.037Z,10.40
2022-09-17T15:15:51.706Z,10.40
2022-09-17T15:18:18.157Z,10.42
2022-09-17T15:20:45.942Z,10.45
2022-09-17T15:23:14.974Z,10.53
2022-09-17T15:25:41.395Z,10.49
2022-09-17T15:28:38.447Z,10.50
2022-09-17T15:31:06.002Z,10.53
2022-09-17T15:33:32.810Z,10.50
2022-09-17T15:36:15.388Z,10.50
2022-09-17T15:38:42.776Z,10.54
2022-09-17T15:41:15.647Z,10.47
2022-09-17T15:43:44.489Z,10.51
2022-09-17T15:46:28.802Z,10.53
2022-09-17T15:48:59.907Z,10.46
2022-09-17T15:51:34.264Z,10.48
2022-09-17T15:54:05.421Z,10.46
2022-09-17T15:56:33.428Z,10.47
2022-09-17T15:59:00.840Z,10.38
2022-09-17T16:01:31.020Z,10.31
2022-09-17T16:04:06.226Z,10.19
2022-09-17T16:06:33.263Z,10.17
2022-09-17T16:09:03.674Z,10.18
2022-09-17T16:11:31.137Z,10.23
2022-09-17T16:13:59.176Z,10.32
2022-09-17T16:16:35.242Z,10.27
2022-09-17T16:19:01.927Z,10.27
2022-09-17T16:21:29.043Z,10.19
2022-09-17T16:23:55.482Z,10.25
2022-09-17T16:26:23.403Z,10.18
2022-09-17T16:28:55.794Z,10.23
2022-09-17T16:31:22.234Z,10.22
2022-09-17T16:33:48.645Z,10.25
2022-09-17T16:36:18.123Z,10.28
2022-09-17T16:38:44.552Z,10.29
2022-09-17T16:41:11.104Z,10.26
2022-09-17T16:43:38.325Z,10.29
2022-09-17T16:46:06.792Z,10.35
2022-09-17T16:48:33.450Z,10.39
2022-09-17T16:51:01.510Z,10.44
2022-09-17T16:53:27.955Z,10.44
2022-09-17T16:55:54.368Z,10.48
2022-09-17T16:58:20.800Z,10.53
2022-09-17T17:00:47.296Z,10.55
2022-09-17T17:03:14.773Z,10.57
2022-09-17T17:05:41.240Z,10.65
2022-09-17T17:08:08.784Z,10.60
2022-09-17T17:10:35.400Z,10.58
2022-09-17T17:13:01.794Z,10.62
2022-09-17T17:15:28.186Z,10.66
2022-09-17T17:17:54.580Z,10.65
2022-09-17T17:20:20.965Z,10.63
2022-09-17T17:22:47.464Z,10.60
2022-09-17T17:25:14.219Z,10.61
2022-09-17T17:27:40.799Z,10.60
2022-09-17T17:30:08.474Z,10.65
2022-09-17T17:32:35.788Z,10.64
2022-09-17T17:35:02.534Z,10.64
2022-09-17T17:37:29.036Z,10.60
2022-09-17T17:39:55.507Z,10.60
2022-09-17T17:42:21.941Z,10.59
2022-09-17T17:44:48.414Z,10.64
2022-09-17T17:47:14.845Z,10.70
2022-09-17T17:49:41.204Z,10.59
2022-09-17T17:52:07.555Z,10.57
2022-09-17T17:54:33.988Z,10.57
2022-09-17T17:57:00.394Z,10.56
2022-09-17T17:59:26.810Z,10.56
2022-09-17T18:01:53.255Z,10.55
2022-09-17T18:04:19.760Z,10.55
2022-09-17T18:06:48.049Z,10.61
2022-09-17T18:09:14.710Z,10.56
2022-09-17T18:11:41.116Z,10.50
2022-09-17T18:14:09.378Z,10.45
2022-09-17T18:16:35.854Z,10.42
2022-09-17T18:19:02.662Z,10.37
2022-09-17T18:21:29.059Z,10.38
2022-09-17T18:23:55.459Z,10.35
2022-09-17T18:26:23.379Z,10.39
2022-09-17T18:28:50.172Z,10.39
2022-09-17T18:31:30.207Z,10.39
2022-09-17T18:34:12.628Z,10.45
2022-09-17T18:36:39.615Z,10.45
2022-09-17T18:39:33.153Z,10.48
2022-09-17T18:41:54.360Z,10.46
2022-09-17T18:44:21.845Z,10.40
2022-09-17T18:46:49.894Z,10.42
2022-09-17T18:49:16.366Z,10.43
2022-09-17T18:51:42.732Z,10.41
2022-09-17T18:54:10.533Z,10.40
2022-09-17T18:56:37.223Z,10.42
2022-09-17T18:59:07.943Z,10.43
2022-09-17T19:01:34.989Z,10.38
2022-09-17T19:04:01.687Z,10.34
2022-09-17T19:06:28.431Z,10.33
2022-09-17T19:09:00.927Z,10.34
2022-09-17T19:11:27.494Z,10.33
2022-09-17T19:13:54.091Z,10.29
2022-09-17T19:16:20.547Z,10.36
2022-09-17T19:18:47.034Z,10.36
2022-09-17T19:21:14.996Z,10.36
2022-09-17T19:23:48.407Z,10.34
2022-09-17T19:26:19.443Z,10.38
2022-09-17T19:28:45.837Z,10.37
2022-09-17T19:31:14.019Z,10.42
2022-09-17T19:33:40.542Z,10.43
2022-09-17T19:36:08.620Z,10.40
2022-09-17T19:38:35.006Z,10.33
2022-09-17T19:41:04.104Z,10.39
2022-09-17T19:43:30.660Z,10.39
2022-09-17T19:46:21.163Z,10.41
2022-09-17T19:48:55.045Z,10.34
2022-09-17T19:51:22.910Z,10.33
2022-09-17T19:53:49.431Z,10.43
2022-09-17T19:56:17.410Z,10.48
2022-09-17T19:58:43.835Z,10.44
2022-09-17T20:01:10.665Z,10.45
2022-09-17T20:03:40.807Z,10.44
2022-09-17T20:06:08.567Z,10.42
2022-09-17T20:08:40.842Z,10.46
2022-09-17T20:11:08.971Z,10.45
2022-09-17T20:13:35.502Z,10.44
2022-09-17T20:16:06.191Z,10.48
2022-09-17T20:18:32.747Z,10.48
2022-09-17T20:20:59.115Z,10.47
2022-09-17T20:23:30.660Z,10.45
2022-09-17T20:25:57.064Z,10.40
2022-09-17T20:28:23.533Z,10.45
2022-09-17T20:30:49.994Z,10.47
2022-09-17T20:33:18.932Z,10.49
2022-09-17T20:35:47.441Z,10.45
2022-09-17T20:41:04.180Z,10.47
2022-09-17T20:43:38.026Z,10.47
2022-09-17T20:46:05.119Z,10.48
2022-09-17T20:48:31.837Z,10.46
2022-09-17T20:51:03.214Z,10.43
2022-09-17T20:53:30.385Z,10.44
2022-09-17T20:56:00.784Z,10.45
2022-09-17T20:58:30.913Z,10.47
2022-09-17T21:01:13.532Z,10.51
2022-09-17T21:03:40.921Z,10.50
2022-09-17T21:06:07.465Z,10.46
2022-09-17T21:08:33.846Z,10.45
2022-09-17T21:11:04.413Z,10.48
2022-09-17T21:13:30.782Z,10.45
2022-09-17T21:15:58.214Z,10.46
2022-09-17T21:18:25.028Z,10.44
2022-09-17T21:20:51.504Z,10.39
2022-09-17T21:23:25.612Z,10.40
2022-09-17T21:25:52.085Z,10.41
2022-09-17T21:28:21.814Z,10.34
2022-09-17T21:30:48.284Z,10.39
2022-09-17T21:33:21.922Z,10.36
2022-09-17T21:35:51.344Z,10.40
2022-09-17T21:38:20.155Z,10.25
2022-09-17T21:40:59.931Z,10.26
2022-09-17T21:43:26.587Z,10.30
2022-09-17T21:46:04.413Z,10.27
2022-09-17T21:48:31.231Z,10.26
2022-09-17T21:51:08.669Z,10.23
2022-09-17T21:53:35.112Z,10.16
2022-09-17T21:56:11.744Z,10.10
2022-09-17T21:58:38.431Z,10.12
2022-09-17T22:01:09.613Z,10.08
2022-09-17T22:03:36.074Z,10.02
2022-09-17T22:06:06.689Z,10.11
2022-09-17T22:08:33.400Z,10.10
2022-09-17T22:11:10.345Z,10.07
2022-09-17T22:13:37.100Z,10.02
2022-09-17T22:16:04.935Z,10.02
2022-09-17T22:18:32.193Z,10.02
2022-09-17T22:20:59.120Z,9.97
2022-09-17T22:23:26.353Z,9.95
2022-09-17T22:26:05.460Z,10.00
2022-09-17T22:28:31.906Z,10.01
2022-09-17T22:31:01.384Z,9.91
2022-09-17T22:33:31.725Z,9.90
2022-09-17T22:36:02.822Z,9.92
2022-09-17T22:38:29.273Z,9.95
2022-09-17T22:40:55.659Z,9.91
2022-09-17T22:43:22.088Z,9.86
2022-09-17T22:45:48.458Z,9.87
2022-09-17T22:48:14.840Z,9.82
2022-09-17T22:50:41.203Z,9.80
2022-09-17T22:53:07.591Z,9.74
2022-09-17T22:55:35.457Z,9.75
2022-09-17T22:58:01.848Z,9.71
2022-09-17T23:00:28.392Z,9.61
2022-09-17T23:02:54.914Z,9.66
2022-09-17T23:05:21.332Z,9.65
2022-09-17T23:07:47.764Z,9.59
2022-09-17T23:10:14.146Z,9.65
2022-09-17T23:12:40.513Z,9.65
2022-09-17T23:15:07.414Z,9.64
2022-09-17T23:17:36.621Z,9.65
2022-09-17T23:20:03.745Z,9.66
2022-09-17T23:22:30.177Z,9.66
2022-09-17T23:24:56.550Z,9.64
2022-09-17T23:27:22.936Z,9.66
2022-09-17T23:29:49.311Z,9.62
2022-09-17T23:32:15.682Z,9.64
2022-09-17T23:34:42.085Z,9.61
2022-09-17T23:37:08.467Z,9.65
2022-09-17T23:39:34.845Z,9.69
2022-09-17T23:42:01.230Z,9.68
2022-09-17T23:44:27.672Z,9.66
2022-09-17T23:46:54.137Z,9.67
2022-09-17T23:49:20.525Z,9.68
2022-09-17T23:51:46.922Z,9.69
2022-09-17T23:54:13.349Z,9.71
2022-09-17T23:56:39.848Z,9.71
2022-09-17T23:59:07.323Z,9.73
